Time;durP1;ratioP1;P1;durP2;ratioP2;P2;SDS_P1;SDS_P2;PMS_P1;PMS_P2;Temp;Humidity;BMP_temperature;BMP_pressure;BME280_temperature;BME280_humidity;BME280_pressure;Samples;Min_cycle;Max_cycle;Signal;HPM_P1;HPM_P2
2023/08/04 00:01:55;;;;;;;3.55;1.10;;;;;;;;;;5048198;28;20517;-78
2023/08/04 00:04:23;;;;;;;3.40;1.08;;;;;;;;;;5047682;28;20073;-78
2023/08/04 00:06:52;;;;;;;1.65;0.85;;;;;;;;;;5047715;28;20083;-78
2023/08/04 00:09:19;;;;;;;2.17;0.95;;;;;;;;;;5046104;28;20053;-77
2023/08/04 00:11:47;;;;;;;1.05;0.95;;;;;;;;;;5039361;28;20045;-78
2023/08/04 00:14:14;;;;;;;2.03;1.00;;;;;;;;;;5024056;28;20045;-78
2023/08/04 00:16:42;;;;;;;2.70;0.70;;;;;;;;;;5047211;28;20418;-78
2023/08/04 00:19:09;;;;;;;1.52;0.80;;;;;;;;;;5046509;28;20049;-78
2023/08/04 00:21:37;;;;;;;3.05;0.88;;;;;;;;;;5046420;28;20441;-78
2023/08/04 00:24:04;;;;;;;2.40;1.00;;;;;;;;;;5054624;28;20049;-78
2023/08/04 00:26:32;;;;;;;5.03;1.02;;;;;;;;;;5030097;28;20065;-78
2023/08/04 00:28:59;;;;;;;4.00;1.30;;;;;;;;;;5042788;28;20056;-78
2023/08/04 00:31:27;;;;;;;1.10;0.80;;;;;;;;;;5047117;28;20041;-79
2023/08/04 00:33:55;;;;;;;5.57;0.90;;;;;;;;;;5029813;28;20057;-78
2023/08/04 00:36:22;;;;;;;3.50;1.00;;;;;;;;;;5042168;28;20567;-78
2023/08/04 00:38:50;;;;;;;3.13;1.08;;;;;;;;;;5039811;28;20447;-78
2023/08/04 00:41:17;;;;;;;2.50;0.95;;;;;;;;;;5053206;28;20049;-78
2023/08/04 00:43:44;;;;;;;4.40;0.80;;;;;;;;;;5033057;28;20136;-78
2023/08/04 00:46:12;;;;;;;3.08;0.90;;;;;;;;;;5043823;28;20040;-77
2023/08/04 00:48:39;;;;;;;4.63;1.27;;;;;;;;;;5033476;28;20051;-78
2023/08/04 00:51:07;;;;;;;5.97;1.30;;;;;;;;;;5027165;28;20055;-78
2023/08/04 00:53:34;;;;;;;1.52;1.00;;;;;;;;;;5055655;28;20075;-78
2023/08/04 00:56:02;;;;;;;2.10;1.00;;;;;;;;;;5050505;28;20388;-78
2023/08/04 00:58:30;;;;;;;2.13;1.05;;;;;;;;;;5050762;28;20049;-78
2023/08/04 01:00:57;;;;;;;3.17;0.95;;;;;;;;;;5059131;28;20538;-78
2023/08/04 01:03:25;;;;;;;3.60;0.88;;;;;;;;;;5051108;28;20086;-78
2023/08/04 01:05:59;;;;;;;3.00;0.93;;;;;;;;;;5051040;28;20212;-78
2023/08/04 01:08:31;;;;;;;3.20;1.10;;;;;;;;;;5051188;28;20040;-77
2023/08/04 01:11:01;;;;;;;2.55;1.10;;;;;;;;;;5042594;28;20067;-77
2023/08/04 01:13:29;;;;;;;2.55;1.10;;;;;;;;;;5025895;28;20094;-78
2023/08/04 01:15:57;;;;;;;3.17;1.13;;;;;;;;;;5048792;28;20053;-78
2023/08/04 01:18:25;;;;;;;4.60;0.98;;;;;;;;;;5050659;28;20136;-78
2023/08/04 01:20:53;;;;;;;1.27;0.80;;;;;;;;;;5049592;28;20048;-78
2023/08/04 01:23:20;;;;;;;1.20;1.10;;;;;;;;;;5048361;28;20046;-78
2023/08/04 01:25:48;;;;;;;2.45;1.10;;;;;;;;;;5046906;28;20119;-78
2023/08/04 01:28:16;;;;;;;2.55;1.13;;;;;;;;;;5050498;28;20499;-78
2023/08/04 01:30:45;;;;;;;1.92;1.10;;;;;;;;;;5033000;28;20045;-78
2023/08/04 01:33:13;;;;;;;1.40;1.00;;;;;;;;;;5033201;28;20045;-78
2023/08/04 01:35:42;;;;;;;4.47;1.05;;;;;;;;;;5032431;28;20053;-78
2023/08/04 01:38:13;;;;;;;2.47;0.90;;;;;;;;;;5050914;28;20106;-78
2023/08/04 01:40:40;;;;;;;2.97;1.10;;;;;;;;;;5050204;28;20135;-78
2023/08/04 01:43:08;;;;;;;1.98;0.90;;;;;;;;;;5031881;28;20064;-78
2023/08/04 01:45:35;;;;;;;1.27;1.13;;;;;;;;;;5024559;28;20083;-79
2023/08/04 01:48:03;;;;;;;1.65;1.00;;;;;;;;;;5050543;28;20044;-78
2023/08/04 01:50:30;;;;;;;2.45;1.08;;;;;;;;;;5050042;28;20052;-79
2023/08/04 01:52:58;;;;;;;2.30;1.00;;;;;;;;;;5033377;28;20483;-78
2023/08/04 01:55:26;;;;;;;2.13;1.10;;;;;;;;;;5041227;28;20134;-78
2023/08/04 01:57:53;;;;;;;1.20;1.10;;;;;;;;;;5026515;28;20146;-78
2023/08/04 02:00:21;;;;;;;2.67;1.08;;;;;;;;;;5055891;28;20525;-78
2023/08/04 02:02:48;;;;;;;1.27;1.00;;;;;;;;;;5049209;28;20056;-78
2023/08/04 02:05:16;;;;;;;1.83;1.10;;;;;;;;;;5039911;28;20033;-77
2023/08/04 02:07:43;;;;;;;1.58;1.10;;;;;;;;;;5056577;28;20434;-78
2023/08/04 02:10:11;;;;;;;5.82;1.50;;;;;;;;;;5027586;28;20208;-77
2023/08/04 02:12:38;;;;;;;2.78;1.10;;;;;;;;;;5037924;28;20044;-78
2023/08/04 02:15:06;;;;;;;1.45;1.13;;;;;;;;;;5050540;28;20049;-78
2023/08/04 02:17:36;;;;;;;1.92;1.20;;;;;;;;;;5050972;28;20044;-78
2023/08/04 02:20:05;;;;;;;3.97;1.40;;;;;;;;;;5042850;28;20045;-77
2023/08/04 02:22:32;;;;;;;3.72;1.25;;;;;;;;;;5036053;28;20049;-77
2023/08/04 02:24:59;;;;;;;1.45;1.30;;;;;;;;;;5061793;28;20123;-77
2023/08/04 02:27:27;;;;;;;3.22;1.27;;;;;;;;;;5042117;28;20496;-77
2023/08/04 02:29:54;;;;;;;1.55;1.20;;;;;;;;;;5040918;28;20040;-77
2023/08/04 02:32:22;;;;;;;4.97;1.40;;;;;;;;;;5037620;28;20050;-77
2023/08/04 02:34:51;;;;;;;1.83;1.73;;;;;;;;;;5047883;28;20060;-77
2023/08/04 02:37:18;;;;;;;2.90;1.30;;;;;;;;;;5039496;28;20079;-78
2023/08/04 02:39:46;;;;;;;2.25;1.27;;;;;;;;;;5032777;28;20076;-78
2023/08/04 02:42:13;;;;;;;2.50;1.27;;;;;;;;;;5035267;28;20155;-78
2023/08/04 02:44:41;;;;;;;1.98;1.60;;;;;;;;;;5044824;28;20353;-78
2023/08/04 02:47:09;;;;;;;2.53;1.40;;;;;;;;;;5049254;28;20118;-77
2023/08/04 02:49:36;;;;;;;3.78;1.90;;;;;;;;;;5014453;28;20128;-77
2023/08/04 02:52:08;;;;;;;1.92;1.63;;;;;;;;;;5031330;28;20052;-78
2023/08/04 02:54:36;;;;;;;2.33;1.80;;;;;;;;;;5024469;28;20595;-78
2023/08/04 02:57:03;;;;;;;1.50;1.30;;;;;;;;;;5015297;28;20052;-78
2023/08/04 02:59:31;;;;;;;4.10;1.70;;;;;;;;;;5048751;28;20067;-77
2023/08/04 03:01:58;;;;;;;2.92;1.42;;;;;;;;;;5030560;28;20122;-78
2023/08/04 03:04:26;;;;;;;3.08;2.00;;;;;;;;;;5044403;28;20502;-78
2023/08/04 03:06:53;;;;;;;3.33;1.48;;;;;;;;;;5028359;28;20526;-77
2023/08/04 03:09:20;;;;;;;1.55;1.20;;;;;;;;;;5049012;28;20053;-78
2023/08/04 03:11:48;;;;;;;1.95;1.33;;;;;;;;;;5057625;28;20126;-78
2023/08/04 03:14:15;;;;;;;2.03;1.50;;;;;;;;;;5030909;28;20036;-76
2023/08/04 03:16:43;;;;;;;1.63;1.50;;;;;;;;;;5056906;28;20461;-78
2023/08/04 03:19:10;;;;;;;2.45;1.98;;;;;;;;;;5030344;28;20041;-78
2023/08/04 03:21:37;;;;;;;2.80;1.65;;;;;;;;;;5033989;28;20558;-78
2023/08/04 03:24:05;;;;;;;1.95;1.60;;;;;;;;;;5028975;28;20053;-78
2023/08/04 03:26:32;;;;;;;2.92;1.95;;;;;;;;;;5038728;28;20060;-78
2023/08/04 03:29:00;;;;;;;2.58;1.40;;;;;;;;;;5049152;28;20103;-77
2023/08/04 03:31:27;;;;;;;2.58;1.50;;;;;;;;;;5055317;28;20083;-78
2023/08/04 03:33:55;;;;;;;7.85;1.90;;;;;;;;;;5030360;28;20052;-78
2023/08/04 03:36:22;;;;;;;4.35;1.77;;;;;;;;;;5052234;28;20076;-78
2023/08/04 03:38:50;;;;;;;3.00;1.60;;;;;;;;;;5052382;28;20479;-78
2023/08/04 03:41:17;;;;;;;5.47;1.90;;;;;;;;;;5052795;28;20049;-78
2023/08/04 03:43:45;;;;;;;1.52;1.40;;;;;;;;;;5052271;28;20583;-78
2023/08/04 03:46:12;;;;;;;2.00;1.80;;;;;;;;;;5022722;28;20048;-78
2023/08/04 03:48:39;;;;;;;2.90;1.48;;;;;;;;;;5049010;28;20055;-77
2023/08/04 03:51:07;;;;;;;2.65;1.50;;;;;;;;;;5065554;28;20437;-78
2023/08/04 03:53:34;;;;;;;2.92;1.80;;;;;;;;;;5027845;28;20056;-78
2023/08/04 03:56:02;;;;;;;11.07;1.90;;;;;;;;;;5047361;28;20073;-78
2023/08/04 03:58:29;;;;;;;4.30;1.60;;;;;;;;;;5048860;28;20057;-78
2023/08/04 04:00:56;;;;;;;3.17;1.80;;;;;;;;;;5049962;28;20122;-78
2023/08/04 04:03:24;;;;;;;1.63;1.52;;;;;;;;;;5050238;28;20067;-78
2023/08/04 04:05:51;;;;;;;2.13;1.40;;;;;;;;;;5049718;28;20656;-78
2023/08/04 04:08:19;;;;;;;4.80;1.80;;;;;;;;;;5048770;28;20564;-78
2023/08/04 04:10:48;;;;;;;1.80;1.70;;;;;;;;;;5039936;28;20472;-78
2023/08/04 04:13:15;;;;;;;2.38;1.80;;;;;;;;;;5031183;28;20052;-78
2023/08/04 04:15:42;;;;;;;4.70;1.80;;;;;;;;;;5049517;28;20057;-78
2023/08/04 04:18:10;;;;;;;3.83;1.70;;;;;;;;;;5050420;28;20056;-78
2023/08/04 04:20:37;;;;;;;4.50;1.75;;;;;;;;;;5054975;28;20049;-78
2023/08/04 04:23:05;;;;;;;6.88;2.10;;;;;;;;;;5038817;28;20102;-78
2023/08/04 04:25:32;;;;;;;2.22;1.90;;;;;;;;;;5062096;28;20044;-78
2023/08/04 04:28:00;;;;;;;1.98;1.88;;;;;;;;;;5051529;28;20071;-77
2023/08/04 04:30:27;;;;;;;3.78;1.42;;;;;;;;;;5030769;28;20045;-78
2023/08/04 04:32:54;;;;;;;3.53;1.77;;;;;;;;;;5038360;28;20068;-77
2023/08/04 04:35:22;;;;;;;1.88;1.75;;;;;;;;;;5048552;28;20049;-78
2023/08/04 04:37:49;;;;;;;1.50;1.40;;;;;;;;;;5047303;28;20450;-78
2023/08/04 04:40:17;;;;;;;2.75;2.20;;;;;;;;;;5048001;28;20072;-78
2023/08/04 04:42:44;;;;;;;2.40;1.85;;;;;;;;;;5048514;28;20060;-77
2023/08/04 04:45:12;;;;;;;2.90;1.90;;;;;;;;;;5049512;28;20053;-78
2023/08/04 04:47:39;;;;;;;1.88;1.77;;;;;;;;;;5053925;28;20057;-78
2023/08/04 04:50:07;;;;;;;2.95;2.20;;;;;;;;;;5048309;28;20041;-78
2023/08/04 04:52:35;;;;;;;2.20;2.10;;;;;;;;;;5049813;28;20388;-78
2023/08/04 04:55:04;;;;;;;2.22;2.05;;;;;;;;;;5036240;28;20057;-78
2023/08/04 04:57:39;;;;;;;1.67;1.58;;;;;;;;;;5042870;28;20567;-78
2023/08/04 05:00:07;;;;;;;2.53;2.00;;;;;;;;;;5026769;28;20072;-78
2023/08/04 05:02:35;;;;;;;5.53;2.22;;;;;;;;;;5047610;28;20124;-78
2023/08/04 05:05:03;;;;;;;2.45;1.80;;;;;;;;;;5046053;28;20064;-78
2023/08/04 05:07:30;;;;;;;2.10;1.63;;;;;;;;;;5045954;28;20103;-78
2023/08/04 05:09:58;;;;;;;4.15;1.90;;;;;;;;;;5046865;28;20053;-78
2023/08/04 05:12:25;;;;;;;4.70;2.10;;;;;;;;;;5050810;28;20103;-78
2023/08/04 05:14:52;;;;;;;2.60;2.13;;;;;;;;;;5051095;28;20049;-78
2023/08/04 05:17:20;;;;;;;8.05;2.00;;;;;;;;;;5050843;28;20049;-78
2023/08/04 05:19:47;;;;;;;3.45;1.90;;;;;;;;;;5047823;28;20063;-78
2023/08/04 05:22:14;;;;;;;3.70;1.73;;;;;;;;;;5029788;28;20068;-78
2023/08/04 05:24:42;;;;;;;3.80;2.70;;;;;;;;;;5047615;28;20477;-78
2023/08/04 05:27:10;;;;;;;2.72;2.33;;;;;;;;;;5050867;28;20083;-79
2023/08/04 05:29:37;;;;;;;3.10;2.40;;;;;;;;;;5051131;28;20053;-78
2023/08/04 05:32:05;;;;;;;2.50;2.28;;;;;;;;;;5050993;28;20049;-78
2023/08/04 05:34:32;;;;;;;4.07;2.50;;;;;;;;;;5032012;28;20051;-78
2023/08/04 05:37:00;;;;;;;2.90;2.28;;;;;;;;;;5039138;28;20077;-78
2023/08/04 05:39:27;;;;;;;5.22;2.58;;;;;;;;;;5031969;28;20055;-78
2023/08/04 05:41:54;;;;;;;2.72;2.20;;;;;;;;;;5051338;28;20056;-78
2023/08/04 05:44:22;;;;;;;4.15;2.35;;;;;;;;;;5032715;28;20102;-78
2023/08/04 05:46:50;;;;;;;4.82;2.47;;;;;;;;;;5039032;28;20052;-78
2023/08/04 05:49:18;;;;;;;4.03;2.55;;;;;;;;;;5046287;28;20056;-78
2023/08/04 05:51:46;;;;;;;4.03;2.58;;;;;;;;;;5064127;28;20132;-77
2023/08/04 05:54:15;;;;;;;3.95;2.42;;;;;;;;;;5048535;28;20053;-76
2023/08/04 05:56:42;;;;;;;6.40;2.70;;;;;;;;;;5014213;28;20414;-77
2023/08/04 05:59:10;;;;;;;3.47;2.30;;;;;;;;;;5064568;28;20174;-77
2023/08/04 06:01:37;;;;;;;1.98;1.88;;;;;;;;;;5049065;28;20053;-76
2023/08/04 06:04:05;;;;;;;3.95;2.47;;;;;;;;;;5041299;28;20049;-77
2023/08/04 06:06:32;;;;;;;3.25;2.80;;;;;;;;;;5030636;28;20041;-76
2023/08/04 06:09:00;;;;;;;4.28;2.20;;;;;;;;;;5058198;28;20072;-78
2023/08/04 06:11:27;;;;;;;2.42;2.22;;;;;;;;;;5042320;28;20123;-77
2023/08/04 06:13:55;;;;;;;4.78;2.45;;;;;;;;;;5057440;28;20044;-80
2023/08/04 06:16:22;;;;;;;2.63;1.95;;;;;;;;;;5060872;28;20076;-78
2023/08/04 06:18:50;;;;;;;4.07;2.92;;;;;;;;;;5050715;28;20402;-78
2023/08/04 06:21:17;;;;;;;1.90;1.80;;;;;;;;;;5050967;28;20122;-78
2023/08/04 06:23:48;;;;;;;1.90;1.80;;;;;;;;;;5058970;28;20049;-78
2023/08/04 06:26:15;;;;;;;6.43;2.30;;;;;;;;;;5048405;28;20072;-78
2023/08/04 06:28:42;;;;;;;3.35;1.67;;;;;;;;;;5042185;28;20121;-78
2023/08/04 06:31:10;;;;;;;3.63;2.10;;;;;;;;;;5047095;28;20064;-77
2023/08/04 06:33:38;;;;;;;4.80;1.95;;;;;;;;;;5053644;28;20483;-78
2023/08/04 06:36:06;;;;;;;2.05;1.80;;;;;;;;;;5023792;28;20600;-78
2023/08/04 06:38:33;;;;;;;2.67;1.60;;;;;;;;;;5035454;28;20115;-78
2023/08/04 06:41:00;;;;;;;2.05;1.50;;;;;;;;;;5051969;28;20427;-78
2023/08/04 06:43:28;;;;;;;1.38;1.30;;;;;;;;;;5050641;28;20499;-78
2023/08/04 06:45:55;;;;;;;1.30;1.20;;;;;;;;;;5054084;28;20071;-77
2023/08/04 06:48:24;;;;;;;2.33;1.58;;;;;;;;;;5025809;28;20049;-78
2023/08/04 06:50:52;;;;;;;1.10;1.10;;;;;;;;;;5055798;28;20048;-78
2023/08/04 06:53:19;;;;;;;1.45;1.20;;;;;;;;;;5065548;28;20491;-78
2023/08/04 06:55:47;;;;;;;4.95;1.40;;;;;;;;;;5042333;28;20052;-77
2023/08/04 06:58:14;;;;;;;2.22;1.20;;;;;;;;;;5062026;28;20056;-78
2023/08/04 07:00:42;;;;;;;2.80;1.30;;;;;;;;;;5047309;28;20060;-77
2023/08/04 07:03:11;;;;;;;6.63;1.60;;;;;;;;;;5055488;28;20045;-78
2023/08/04 07:05:39;;;;;;;4.20;1.30;;;;;;;;;;5049260;28;20102;-78
2023/08/04 07:08:06;;;;;;;1.42;1.20;;;;;;;;;;5044778;28;20037;-77
2023/08/04 07:10:35;;;;;;;1.23;1.10;;;;;;;;;;5040076;28;20052;-78
2023/08/04 07:13:02;;;;;;;1.33;1.15;;;;;;;;;;5047943;28;20079;-77
2023/08/04 07:15:32;;;;;;;1.85;1.20;;;;;;;;;;5020693;28;20061;-78
2023/08/04 07:17:59;;;;;;;2.25;1.10;;;;;;;;;;5046900;28;20045;-78
2023/08/04 07:20:28;;;;;;;3.17;0.70;;;;;;;;;;5064999;28;20129;-78
2023/08/04 07:22:55;;;;;;;0.80;0.73;;;;;;;;;;5047192;28;20045;-78
2023/08/04 07:25:23;;;;;;;2.13;0.98;;;;;;;;;;5051089;28;20076;-78
2023/08/04 07:27:50;;;;;;;1.77;1.00;;;;;;;;;;5043199;28;20046;-77
2023/08/04 07:30:18;;;;;;;1.88;0.90;;;;;;;;;;5035482;28;20051;-77
2023/08/04 07:32:45;;;;;;;1.58;0.82;;;;;;;;;;5049228;28;20045;-78
2023/08/04 07:35:13;;;;;;;1.08;1.02;;;;;;;;;;5050047;28;20069;-78
2023/08/04 07:37:41;;;;;;;1.83;1.00;;;;;;;;;;5054396;28;20044;-79
2023/08/04 07:40:09;;;;;;;1.23;1.00;;;;;;;;;;5036194;28;20044;-78
2023/08/04 07:42:37;;;;;;;1.10;1.00;;;;;;;;;;5049391;28;20059;-79
2023/08/04 07:45:04;;;;;;;2.03;0.88;;;;;;;;;;5041671;28;20053;-79
2023/08/04 07:47:32;;;;;;;1.38;0.90;;;;;;;;;;5049618;28;20056;-79
2023/08/04 07:49:59;;;;;;;1.80;1.00;;;;;;;;;;5049145;28;20405;-79
2023/08/04 07:52:26;;;;;;;2.05;0.70;;;;;;;;;;5049937;28;20049;-79
2023/08/04 07:54:54;;;;;;;1.70;0.80;;;;;;;;;;5048095;28;20049;-79
2023/08/04 07:57:21;;;;;;;1.05;0.70;;;;;;;;;;5066418;28;20052;-78
2023/08/04 07:59:50;;;;;;;1.58;1.00;;;;;;;;;;5054679;28;20094;-79
2023/08/04 08:02:17;;;;;;;1.27;0.82;;;;;;;;;;5056864;28;20102;-76
2023/08/04 08:04:45;;;;;;;0.60;0.60;;;;;;;;;;5054828;28;20052;-78
2023/08/04 08:07:12;;;;;;;1.30;0.80;;;;;;;;;;5048090;28;20049;-77
2023/08/04 08:09:39;;;;;;;2.20;1.00;;;;;;;;;;5047815;28;20061;-78
2023/08/04 08:12:07;;;;;;;0.60;0.60;;;;;;;;;;5039524;28;20566;-78
2023/08/04 08:14:35;;;;;;;1.95;0.82;;;;;;;;;;5038759;28;20044;-77
2023/08/04 08:17:02;;;;;;;0.98;0.90;;;;;;;;;;5031759;28;20051;-77
2023/08/04 08:19:29;;;;;;;2.60;0.70;;;;;;;;;;5030096;28;20049;-78
2023/08/04 08:21:57;;;;;;;1.08;0.93;;;;;;;;;;5039272;28;20052;-78
2023/08/04 08:24:24;;;;;;;1.65;1.20;;;;;;;;;;5060473;28;20052;-78
2023/08/04 08:26:52;;;;;;;1.25;0.85;;;;;;;;;;5043333;28;20403;-78
2023/08/04 08:29:19;;;;;;;0.90;0.80;;;;;;;;;;5047656;28;20458;-78
2023/08/04 08:31:48;;;;;;;0.75;0.60;;;;;;;;;;5054888;28;20123;-81
2023/08/04 08:34:17;;;;;;;1.73;0.88;;;;;;;;;;5044794;28;20041;-79
2023/08/04 08:36:44;;;;;;;2.83;0.60;;;;;;;;;;5053161;28;20107;-82
2023/08/04 08:39:12;;;;;;;1.25;0.65;;;;;;;;;;5061264;28;20052;-78
2023/08/04 08:41:39;;;;;;;1.00;0.80;;;;;;;;;;5060789;28;20053;-78
2023/08/04 08:44:07;;;;;;;1.35;0.73;;;;;;;;;;5042277;28;20069;-78
2023/08/04 08:46:34;;;;;;;1.58;0.80;;;;;;;;;;5064741;28;20053;-77
2023/08/04 08:49:02;;;;;;;1.17;0.70;;;;;;;;;;5051233;28;20152;-78
2023/08/04 08:51:30;;;;;;;0.70;0.57;;;;;;;;;;5062801;28;20058;-77
2023/08/04 08:53:58;;;;;;;1.13;0.60;;;;;;;;;;5058482;28;20049;-79
2023/08/04 08:56:26;;;;;;;0.75;0.60;;;;;;;;;;5051315;28;20045;-78
2023/08/04 08:58:55;;;;;;;1.42;0.60;;;;;;;;;;5046387;28;20434;-79
2023/08/04 09:01:22;;;;;;;0.93;0.50;;;;;;;;;;5061553;28;20453;-78
2023/08/04 09:03:50;;;;;;;1.55;0.60;;;;;;;;;;5056663;28;20053;-78
2023/08/04 09:06:17;;;;;;;0.85;0.57;;;;;;;;;;5055292;28;20045;-79
2023/08/04 09:08:45;;;;;;;1.08;0.65;;;;;;;;;;5054613;28;20044;-79
2023/08/04 09:11:12;;;;;;;0.50;0.50;;;;;;;;;;5052920;28;20103;-78
2023/08/04 09:13:42;;;;;;;2.60;0.60;;;;;;;;;;5053928;28;20053;-78
2023/08/04 09:16:12;;;;;;;0.77;0.60;;;;;;;;;;5060310;28;20479;-78
2023/08/04 09:18:40;;;;;;;1.67;0.70;;;;;;;;;;5055371;28;20053;-78
2023/08/04 09:21:07;;;;;;;0.50;0.50;;;;;;;;;;5054482;28;20056;-77
2023/08/04 09:23:41;;;;;;;0.80;0.60;;;;;;;;;;5055547;28;20351;-78
2023/08/04 09:26:09;;;;;;;0.60;0.40;;;;;;;;;;5057150;28;20049;-78
2023/08/04 09:28:36;;;;;;;2.00;0.60;;;;;;;;;;5053376;28;20045;-78
2023/08/04 09:31:12;;;;;;;0.50;0.50;;;;;;;;;;5057415;28;20483;-77
2023/08/04 09:33:41;;;;;;;0.88;0.60;;;;;;;;;;5046171;28;20057;-77
2023/08/04 09:36:09;;;;;;;0.82;0.52;;;;;;;;;;5045927;28;20048;-78
2023/08/04 09:38:37;;;;;;;0.80;0.50;;;;;;;;;;5053084;28;20478;-78
2023/08/04 09:41:06;;;;;;;2.03;0.75;;;;;;;;;;5044066;28;20103;-78
2023/08/04 09:43:33;;;;;;;1.52;0.70;;;;;;;;;;5053057;28;20068;-79
2023/08/04 09:46:06;;;;;;;0.63;0.50;;;;;;;;;;5057664;28;20053;-79
2023/08/04 09:48:37;;;;;;;6.18;0.70;;;;;;;;;;5023839;28;20083;-80
2023/08/04 09:51:08;;;;;;;2.40;0.50;;;;;;;;;;5042225;28;20056;-80
2023/08/04 09:53:46;;;;;;;0.50;0.50;;;;;;;;;;5036395;28;20068;-79
2023/08/04 09:56:15;;;;;;;0.77;0.43;;;;;;;;;;5061484;28;20437;-79
2023/08/04 09:58:43;;;;;;;0.50;0.50;;;;;;;;;;5052517;28;20108;-79
2023/08/04 10:01:11;;;;;;;0.43;0.40;;;;;;;;;;5047744;28;20088;-79
2023/08/04 10:03:40;;;;;;;0.60;0.50;;;;;;;;;;5046948;28;20094;-79
2023/08/04 10:06:09;;;;;;;4.43;0.57;;;;;;;;;;5036343;28;20109;-80
2023/08/04 10:08:42;;;;;;;2.38;0.70;;;;;;;;;;5053074;28;20356;-79
2023/08/04 10:11:09;;;;;;;0.95;0.60;;;;;;;;;;5054415;28;20079;-78
2023/08/04 10:13:41;;;;;;;0.43;0.40;;;;;;;;;;5055849;28;20479;-78
2023/08/04 10:16:10;;;;;;;0.45;0.45;;;;;;;;;;5057970;28;20052;-79
2023/08/04 10:18:46;;;;;;;2.35;0.60;;;;;;;;;;5025423;28;20045;-79
2023/08/04 10:21:14;;;;;;;1.00;0.60;;;;;;;;;;5036305;28;20034;-80
2023/08/04 10:23:41;;;;;;;2.38;0.57;;;;;;;;;;5048830;28;20068;-79
2023/08/04 10:26:11;;;;;;;2.25;0.55;;;;;;;;;;5051950;28;20459;-79
2023/08/04 10:28:57;;;;;;;1.50;0.70;;;;;;;;;;5036067;28;20051;-80
2023/08/04 10:31:39;;;;;;;0.63;0.63;;;;;;;;;;5052068;28;20049;-79
2023/08/04 10:34:16;;;;;;;0.65;0.65;;;;;;;;;;5050563;28;20496;-79
2023/08/04 10:36:53;;;;;;;2.05;0.60;;;;;;;;;;5053820;28;20060;-79
2023/08/04 10:39:35;;;;;;;1.85;0.60;;;;;;;;;;5062547;28;20151;-79
2023/08/04 10:42:22;;;;;;;2.05;0.50;;;;;;;;;;5039653;28;20049;-78
2023/08/04 10:44:49;;;;;;;2.35;0.60;;;;;;;;;;5045518;28;20057;-79
2023/08/04 10:47:28;;;;;;;3.13;0.70;;;;;;;;;;5061430;28;20495;-79
2023/08/04 10:50:00;;;;;;;0.50;0.50;;;;;;;;;;5047104;28;20090;-80
2023/08/04 10:52:28;;;;;;;1.73;0.70;;;;;;;;;;5045397;28;20589;-79
2023/08/04 10:54:58;;;;;;;0.93;0.50;;;;;;;;;;5053507;28;20124;-80
2023/08/04 10:57:28;;;;;;;0.70;0.50;;;;;;;;;;5027850;28;20385;-80
2023/08/04 10:59:55;;;;;;;1.58;0.60;;;;;;;;;;5045308;28;20312;-79
2023/08/04 11:02:23;;;;;;;1.58;0.60;;;;;;;;;;5038984;28;20340;-79
2023/08/04 11:04:51;;;;;;;0.55;0.55;;;;;;;;;;5043779;28;20049;-80
2023/08/04 11:07:20;;;;;;;0.47;0.47;;;;;;;;;;5035383;28;20057;-79
2023/08/04 11:09:48;;;;;;;1.10;0.50;;;;;;;;;;5069592;28;20086;-79
2023/08/04 11:12:16;;;;;;;0.73;0.57;;;;;;;;;;5048710;28;20049;-79
2023/08/04 11:14:43;;;;;;;0.55;0.50;;;;;;;;;;5055811;28;20046;-79
2023/08/04 11:17:14;;;;;;;0.55;0.55;;;;;;;;;;5044152;28;20080;-79
2023/08/04 11:19:46;;;;;;;1.63;0.65;;;;;;;;;;5040108;28;20575;-79
2023/08/04 11:22:14;;;;;;;2.35;0.70;;;;;;;;;;5052457;28;20055;-79
2023/08/04 11:24:42;;;;;;;0.65;0.50;;;;;;;;;;5041490;28;20056;-79
2023/08/04 11:27:11;;;;;;;2.83;1.10;;;;;;;;;;5052726;28;20045;-79
2023/08/04 11:29:39;;;;;;;2.28;1.30;;;;;;;;;;5045313;28;20476;-79
2023/08/04 11:32:24;;;;;;;1.67;0.85;;;;;;;;;;5059516;28;20033;-78
2023/08/04 11:34:55;;;;;;;0.57;0.57;;;;;;;;;;5051921;28;20438;-79
2023/08/04 11:37:23;;;;;;;;;;;;;;;;;;5036874;28;20076;-80
2023/08/04 11:39:51;;;;;;;0.40;0.40;;;;;;;;;;5053734;28;19970;-79
2023/08/04 11:42:18;;;;;;;1.15;0.50;;;;;;;;;;5053780;28;20040;-80
2023/08/04 11:44:46;;;;;;;0.50;0.50;;;;;;;;;;5057738;28;20122;-79
2023/08/04 11:47:17;;;;;;;1.13;0.50;;;;;;;;;;5049464;28;20064;-78
2023/08/04 11:49:44;;;;;;;0.82;0.57;;;;;;;;;;5032258;28;20051;-78
2023/08/04 11:52:14;;;;;;;0.82;0.68;;;;;;;;;;5051377;28;20072;-78
2023/08/04 11:54:53;;;;;;;1.70;0.60;;;;;;;;;;5057730;28;20059;-78
2023/08/04 11:57:20;;;;;;;1.02;0.60;;;;;;;;;;5051315;28;20041;-79
2023/08/04 11:59:48;;;;;;;0.82;0.43;;;;;;;;;;5052106;28;20044;-79
2023/08/04 12:02:16;;;;;;;1.02;0.60;;;;;;;;;;5035148;28;20045;-78
2023/08/04 12:04:44;;;;;;;1.00;0.65;;;;;;;;;;5049445;28;20121;-78
2023/08/04 12:07:15;;;;;;;1.90;0.73;;;;;;;;;;5052691;28;20383;-79
2023/08/04 12:09:48;;;;;;;0.80;0.50;;;;;;;;;;5057980;28;20052;-79
2023/08/04 12:12:16;;;;;;;1.10;0.60;;;;;;;;;;5050247;28;20049;-79
2023/08/04 12:14:57;;;;;;;0.50;0.50;;;;;;;;;;5051813;28;20429;-79
2023/08/04 12:17:35;;;;;;;0.52;0.43;;;;;;;;;;5050328;28;20071;-79
2023/08/04 12:20:04;;;;;;;1.38;0.55;;;;;;;;;;5050220;28;20395;-77
2023/08/04 12:22:38;;;;;;;0.68;0.50;;;;;;;;;;5052008;28;20831;-77
2023/08/04 12:25:06;;;;;;;0.82;0.70;;;;;;;;;;5051716;28;20105;-78
2023/08/04 12:27:35;;;;;;;1.42;0.47;;;;;;;;;;5051282;28;20052;-79
2023/08/04 12:30:02;;;;;;;0.57;0.57;;;;;;;;;;5051145;28;20095;-79
2023/08/04 12:32:31;;;;;;;0.47;0.47;;;;;;;;;;5049683;28;20045;-79
2023/08/04 12:35:00;;;;;;;1.75;0.40;;;;;;;;;;5053535;28;20124;-78
2023/08/04 12:37:28;;;;;;;0.63;0.57;;;;;;;;;;5047317;28;20049;-79
2023/08/04 12:39:55;;;;;;;0.73;0.60;;;;;;;;;;5053074;28;20067;-79
2023/08/04 12:42:24;;;;;;;0.88;0.60;;;;;;;;;;5056107;28;20084;-78
2023/08/04 12:44:52;;;;;;;0.75;0.43;;;;;;;;;;5058398;28;20047;-79
2023/08/04 12:47:19;;;;;;;0.82;0.43;;;;;;;;;;5056524;28;20093;-79
2023/08/04 12:49:47;;;;;;;1.80;0.57;;;;;;;;;;5037874;28;20045;-77
2023/08/04 12:52:16;;;;;;;0.50;0.50;;;;;;;;;;5055736;28;20052;-78
2023/08/04 12:54:43;;;;;;;1.23;0.50;;;;;;;;;;5060054;28;20051;-78
2023/08/04 12:57:13;;;;;;;0.50;0.50;;;;;;;;;;5038098;28;20150;-78
2023/08/04 12:59:40;;;;;;;0.70;0.52;;;;;;;;;;5042799;28;20049;-78
2023/08/04 13:02:07;;;;;;;2.00;0.50;;;;;;;;;;5059565;28;20060;-78
2023/08/04 13:04:35;;;;;;;0.50;0.50;;;;;;;;;;5035536;28;20046;-79
2023/08/04 13:07:03;;;;;;;1.45;0.55;;;;;;;;;;5035031;28;20045;-80
2023/08/04 13:09:30;;;;;;;0.60;0.60;;;;;;;;;;5052401;28;20037;-80
2023/08/04 13:11:58;;;;;;;0.95;0.50;;;;;;;;;;5056545;28;20064;-79
2023/08/04 13:14:25;;;;;;;0.57;0.50;;;;;;;;;;5070693;28;20545;-79
2023/08/04 13:16:53;;;;;;;0.43;0.40;;;;;;;;;;5047169;28;20049;-79
2023/08/04 13:19:20;;;;;;;0.73;0.60;;;;;;;;;;5042009;28;20124;-78
2023/08/04 13:21:48;;;;;;;0.75;0.63;;;;;;;;;;5051031;28;20056;-77
2023/08/04 13:24:17;;;;;;;2.50;0.70;;;;;;;;;;5050998;28;20057;-78
2023/08/04 13:26:44;;;;;;;0.40;0.40;;;;;;;;;;5066821;28;20058;-78
2023/08/04 13:29:15;;;;;;;0.47;0.47;;;;;;;;;;5043340;28;20046;-78
2023/08/04 13:31:46;;;;;;;0.65;0.50;;;;;;;;;;5061054;28;20156;-78
2023/08/04 13:34:14;;;;;;;1.05;0.70;;;;;;;;;;5056396;28;20045;-78
2023/08/04 13:36:43;;;;;;;0.50;0.50;;;;;;;;;;5046811;28;20045;-78
2023/08/04 13:39:10;;;;;;;1.15;0.50;;;;;;;;;;5066882;28;20121;-78
2023/08/04 13:41:38;;;;;;;0.82;0.50;;;;;;;;;;5061488;28;20052;-78
2023/08/04 13:44:06;;;;;;;0.88;0.55;;;;;;;;;;5047650;28;20458;-79
2023/08/04 13:46:33;;;;;;;3.25;0.70;;;;;;;;;;5037712;28;20074;-78
2023/08/04 13:49:01;;;;;;;1.25;0.70;;;;;;;;;;5060426;28;20056;-78
2023/08/04 13:51:28;;;;;;;0.50;0.50;;;;;;;;;;5058808;28;20132;-79
2023/08/04 13:53:56;;;;;;;0.57;0.50;;;;;;;;;;5055457;28;20045;-79
2023/08/04 13:56:23;;;;;;;0.43;0.40;;;;;;;;;;5029756;28;20064;-78
2023/08/04 13:58:51;;;;;;;0.80;0.50;;;;;;;;;;5029316;28;20057;-79
2023/08/04 14:01:19;;;;;;;1.73;0.70;;;;;;;;;;5055853;28;20404;-78
2023/08/04 14:03:46;;;;;;;0.70;0.30;;;;;;;;;;5055001;28;20102;-79
2023/08/04 14:06:15;;;;;;;1.00;0.57;;;;;;;;;;5061768;28;20060;-78
2023/08/04 14:08:45;;;;;;;0.50;0.50;;;;;;;;;;5053933;28;20160;-79
2023/08/04 14:11:13;;;;;;;0.50;0.50;;;;;;;;;;5058959;28;20049;-79
2023/08/04 14:13:40;;;;;;;0.60;0.57;;;;;;;;;;5065704;28;20120;-79
2023/08/04 14:16:12;;;;;;;1.02;0.57;;;;;;;;;;5031987;28;20060;-79
2023/08/04 14:18:40;;;;;;;0.98;0.50;;;;;;;;;;5011590;28;20883;-79
2023/08/04 14:21:08;;;;;;;0.68;0.40;;;;;;;;;;5056245;28;20617;-77
2023/08/04 14:23:35;;;;;;;0.63;0.43;;;;;;;;;;5050529;28;20113;-79
2023/08/04 14:26:03;;;;;;;0.40;0.40;;;;;;;;;;5034429;28;20492;-78
2023/08/04 14:28:30;;;;;;;0.70;0.70;;;;;;;;;;5065056;28;20067;-79
2023/08/04 14:30:58;;;;;;;0.60;0.60;;;;;;;;;;5042323;28;20050;-78
2023/08/04 14:33:26;;;;;;;0.57;0.50;;;;;;;;;;5042310;28;20053;-78
2023/08/04 14:35:57;;;;;;;1.30;0.60;;;;;;;;;;5060663;28;20426;-78
2023/08/04 14:38:24;;;;;;;0.57;0.57;;;;;;;;;;5046633;28;20053;-78
2023/08/04 14:40:52;;;;;;;0.63;0.40;;;;;;;;;;5050900;28;20303;-78
2023/08/04 14:43:19;;;;;;;0.40;0.40;;;;;;;;;;5045348;28;20621;-79
2023/08/04 14:45:47;;;;;;;1.05;0.50;;;;;;;;;;5055627;28;20059;-78
2023/08/04 14:48:15;;;;;;;0.60;0.60;;;;;;;;;;5055052;28;20106;-79
2023/08/04 14:50:44;;;;;;;0.40;0.40;;;;;;;;;;5055249;28;20553;-79